Weather at Don's Airstrip [CLOSED]

Public forecast

Using degrees Celsius for public forecast. Weather courtesy of forecast.io.

Closest aviation weather report (METAR) to Don's Airstrip

Closest report is CFB Trenton, 16.7 nm (31.0 km) WNW.

2024/06/13 11:00 (retrieved 25 minutes ago)

CYTR 131100Z 18003KT 140V220 15SM FEW050 SCT130 16/13 A2987 RMK SC1AC3 DENSITY ALT 749FT SLP116

Closest aviation forecast (TAF) to Don's Airstrip

Closest forecast is CFB Trenton, 16.7 nm (31.0 km) WNW.

2024/06/13 06:42 (retrieved 5 hours ago)

TAF TAF CYTR 130540Z 1306/1406 VRB03KT P6SM FEW250 BECMG 1310/1312 22008KT BKN100 FM131400 24012G22KT P6SM BKN100 FM132200 23010G20KT P6SM SCT070 BKN100 TEMPO 1322/1401 P6SM -SHRA PROB30 1322/1401 VRB15G25KT 3SM TSRA BR BKN040 OVC070CB FM140100 28012G22KT P6SM SCT020 OVC040 TEMPO 1401/1406 5SM -SHRA BR BKN020 OVC040 PROB30 1401/1406 VRB15G25KT 2SM TSRA BR BKN020 OVC040CB RMK NXT FCST BY 131200Z